• Join FlightAware (Why Join?)
  • Login
  • US Flag 
03:54AM EDT


 

Airport Tracker/Info


-or-


 

Live Flight TrackerFlight Track Log ✈ N453AM ✈ 28-Feb-2012 ✈ KALB - KTEB

Flight Track Log - Related Links

Times and Time Zones

All times are in EST time to prevent confusion due to time zone crossing. See the N453AM flight status page for this flight to view local times or setup timezone preferences in your user account.

Time Position Orientation Groundspeed Altitude Reporting Facility
EST Latitude Longitude Course Direction KTS MPH feet Rate Location/Type
01:33PM 42.7483 -73.8169 255° West 174 200 1,300  Level Boston Center
01:35PM 42.7283 -73.9211 205° Southwest 193 222 6,700 3,240 Climbing Boston Center
01:36PM 42.6675 -73.9592 201° Southwest 206 237 9,900 2,100 Climbing Boston Center
01:37PM 42.5939 -73.9969 201° Southwest 246 283 11,000 1,260 Climbing Boston Center
01:38PM 42.5206 -74.0344 200° South 269 310 12,500 1,500 Climbing Boston Center
01:39PM 42.4386 -74.0747 202° Southwest 287 330 14,100 780 Climbing Boston Center
01:40PM 42.3694 -74.1122 204° Southwest 292 336 14,100  Level Boston Center
01:41PM 42.2831 -74.1631 203° Southwest 306 352 14,100  Level Boston Center
01:42PM 42.1928 -74.2139 210° Southwest 365 420 14,100 -180 Level Boston Center
01:43PM 42.0914 -74.2922 206° Southwest 390 449 13,800 -840 Descending Boston Center
01:44PM 42.0072 -74.3483 208° Southwest 396 456 12,500 -1,200 Descending Boston Center
01:45PM 41.9142 -74.4153 209° Southwest 377 434 11,500 -1,020 Descending Boston Center
01:46PM 41.8444 -74.4661 208° Southwest 330 380 10,500 -1,140 Descending Boston Center
01:47PM 41.7686 -74.5194 191° South 294 338 9,300 -1,140 Descending Boston Center
01:48PM 41.7036 -74.5367 188° South 276 318 8,300 -720 Descending Boston Center
01:49PM 41.6178 -74.5533 188° South 276 318 7,900 -840 Descending Boston Center
01:50PM 41.5467 -74.5675 187° South 281 323 6,700 -900 Descending Boston Center
01:51PM 41.4589 -74.5814 218° Southwest 290 334 6,200 -360 Descending Boston Center
01:52PM 41.4100 -74.6322 185° South 258 297 6,000 -120 Descending Boston Center
01:53PM 41.2667 -74.6500 163° South 303 349 6,000 -360 Level New York TRACON
01:54PM 41.1833 -74.6167 180° South 304 350 5,100 -900 Descending New York TRACON
01:55PM 41.1167 -74.6167 191° South 275 316 4,200 -900 Descending New York TRACON
01:56PM 41.0500 -74.6333 191° South 250 288 3,300 -600 Descending New York TRACON
01:57PM 40.9833 -74.6500 166° South 205 236 3,000 -180 Descending New York TRACON
01:58PM 40.9333 -74.6333 153° Southeast 194 223 3,000  Level New York TRACON
01:59PM 40.8833 -74.6000 153° Southeast 207 238 3,000 -60 Level New York TRACON
02:00PM 40.8333 -74.5667 143° Southeast 205 236 2,900  Descending New York TRACON
02:01PM 40.7833 -74.5167 131° Southeast 205 236 3,000  Climbing New York TRACON
02:02PM 40.7500 -74.4667 123° Southeast 198 228 3,000 -420 Level New York TRACON
02:03PM 40.7167 -74.4000 114° Southeast 202 232 2,200 -540 Descending New York TRACON
02:04PM 40.7000 -74.3500 90° East 180 207 2,000 -60 Descending New York TRACON
02:05PM 40.7000 -74.2833 49° Northeast 189 217 2,100 -60 Climbing New York TRACON
02:06PM 40.7333 -74.2333 49° Northeast 166 191 1,900 -300 Descending New York TRACON
02:07PM 40.7667 -74.1833 37° Northeast 161 185 1,500 -300 Descending New York TRACON
02:08PM 40.8000 -74.1500 66° East 148 170 1,400 -300 Descending New York TRACON
02:09PM 40.8167 -74.1000 66° East 142 163 1,000 -420 Descending New York TRACON